sensor_id;sensor_type;location;lat;lon;timestamp;P1;durP1;ratioP1;P2;durP2;ratioP2
63114;SDS011;49208;50.874;6.466;2023-05-02T06:02:00;24.70;;;12.02;;
63114;SDS011;49208;50.874;6.466;2023-05-02T06:04:26;29.02;;;12.55;;
63114;SDS011;49208;50.874;6.466;2023-05-02T06:06:51;22.90;;;10.18;;
63114;SDS011;49208;50.874;6.466;2023-05-02T06:09:17;24.38;;;10.77;;
63114;SDS011;49208;50.874;6.466;2023-05-02T06:11:43;26.45;;;11.98;;
63114;SDS011;49208;50.874;6.466;2023-05-02T06:14:09;27.35;;;12.30;;
63114;SDS011;49208;50.874;6.466;2023-05-02T06:16:34;29.15;;;11.23;;
63114;SDS011;49208;50.874;6.466;2023-05-02T06:19:00;24.33;;;12.85;;
63114;SDS011;49208;50.874;6.466;2023-05-02T06:21:25;24.63;;;12.48;;
63114;SDS011;49208;50.874;6.466;2023-05-02T06:23:51;25.52;;;12.07;;
63114;SDS011;49208;50.874;6.466;2023-05-02T06:26:16;22.58;;;11.98;;
63114;SDS011;49208;50.874;6.466;2023-05-02T06:28:42;23.25;;;11.02;;
63114;SDS011;49208;50.874;6.466;2023-05-02T06:31:08;24.63;;;11.38;;
63114;SDS011;49208;50.874;6.466;2023-05-02T06:33:35;29.65;;;13.30;;
63114;SDS011;49208;50.874;6.466;2023-05-02T06:36:00;30.15;;;13.10;;
63114;SDS011;49208;50.874;6.466;2023-05-02T06:38:26;22.48;;;11.00;;
63114;SDS011;49208;50.874;6.466;2023-05-02T06:40:51;24.30;;;11.75;;
63114;SDS011;49208;50.874;6.466;2023-05-02T06:43:17;25.88;;;12.18;;
63114;SDS011;49208;50.874;6.466;2023-05-02T06:45:43;22.40;;;11.15;;
63114;SDS011;49208;50.874;6.466;2023-05-02T06:48:08;27.08;;;13.43;;
63114;SDS011;49208;50.874;6.466;2023-05-02T06:50:34;26.38;;;12.85;;
63114;SDS011;49208;50.874;6.466;2023-05-02T06:53:00;26.73;;;13.30;;
63114;SDS011;49208;50.874;6.466;2023-05-02T06:55:26;28.35;;;14.32;;
63114;SDS011;49208;50.874;6.466;2023-05-02T06:57:52;23.73;;;11.63;;
63114;SDS011;49208;50.874;6.466;2023-05-02T07:00:18;26.48;;;11.85;;
63114;SDS011;49208;50.874;6.466;2023-05-02T07:02:44;21.20;;;12.00;;
63114;SDS011;49208;50.874;6.466;2023-05-02T07:05:11;28.40;;;13.40;;
63114;SDS011;49208;50.874;6.466;2023-05-02T07:07:36;21.50;;;11.02;;
63114;SDS011;49208;50.874;6.466;2023-05-02T07:10:02;21.27;;;11.57;;
63114;SDS011;49208;50.874;6.466;2023-05-02T07:12:28;21.25;;;11.82;;
63114;SDS011;49208;50.874;6.466;2023-05-02T07:14:53;19.23;;;10.35;;
63114;SDS011;49208;50.874;6.466;2023-05-02T07:17:19;19.25;;;10.60;;
63114;SDS011;49208;50.874;6.466;2023-05-02T07:19:45;21.70;;;11.02;;
63114;SDS011;49208;50.874;6.466;2023-05-02T07:22:10;19.73;;;10.63;;
63114;SDS011;49208;50.874;6.466;2023-05-02T07:24:39;21.85;;;10.00;;
63114;SDS011;49208;50.874;6.466;2023-05-02T07:27:05;17.40;;;10.63;;
63114;SDS011;49208;50.874;6.466;2023-05-02T07:29:32;17.08;;;8.75;;
63114;SDS011;49208;50.874;6.466;2023-05-02T07:31:57;19.50;;;9.05;;
63114;SDS011;49208;50.874;6.466;2023-05-02T07:34:23;15.50;;;6.68;;
63114;SDS011;49208;50.874;6.466;2023-05-02T07:36:48;21.02;;;5.82;;
63114;SDS011;49208;50.874;6.466;2023-05-02T07:39:13;10.38;;;5.50;;
63114;SDS011;49208;50.874;6.466;2023-05-02T07:41:39;11.15;;;4.88;;
63114;SDS011;49208;50.874;6.466;2023-05-02T07:44:04;7.47;;;4.85;;
63114;SDS011;49208;50.874;6.466;2023-05-02T07:46:29;10.38;;;4.80;;
63114;SDS011;49208;50.874;6.466;2023-05-02T07:48:55;10.35;;;3.70;;
63114;SDS011;49208;50.874;6.466;2023-05-02T07:51:20;7.88;;;4.18;;
63114;SDS011;49208;50.874;6.466;2023-05-02T07:53:49;9.70;;;4.07;;
63114;SDS011;49208;50.874;6.466;2023-05-02T07:56:17;9.70;;;3.63;;
63114;SDS011;49208;50.874;6.466;2023-05-02T07:58:43;5.97;;;3.38;;
63114;SDS011;49208;50.874;6.466;2023-05-02T08:01:08;6.75;;;3.40;;
63114;SDS011;49208;50.874;6.466;2023-05-02T08:03:34;9.13;;;3.10;;
63114;SDS011;49208;50.874;6.466;2023-05-02T08:05:59;6.00;;;3.10;;
63114;SDS011;49208;50.874;6.466;2023-05-02T08:08:26;5.38;;;2.67;;
63114;SDS011;49208;50.874;6.466;2023-05-02T08:10:52;8.75;;;3.20;;
63114;SDS011;49208;50.874;6.466;2023-05-02T08:13:17;5.68;;;3.00;;
63114;SDS011;49208;50.874;6.466;2023-05-02T08:15:42;5.97;;;3.17;;
63114;SDS011;49208;50.874;6.466;2023-05-02T08:18:08;5.75;;;3.15;;
63114;SDS011;49208;50.874;6.466;2023-05-02T08:20:33;6.10;;;2.50;;
63114;SDS011;49208;50.874;6.466;2023-05-02T08:22:59;7.85;;;2.47;;
63114;SDS011;49208;50.874;6.466;2023-05-02T08:25:24;8.10;;;3.20;;
63114;SDS011;49208;50.874;6.466;2023-05-02T08:27:50;5.65;;;2.10;;
63114;SDS011;49208;50.874;6.466;2023-05-02T08:30:15;4.00;;;2.55;;
63114;SDS011;49208;50.874;6.466;2023-05-02T08:32:40;4.32;;;1.90;;
63114;SDS011;49208;50.874;6.466;2023-05-02T08:35:06;4.00;;;2.13;;
63114;SDS011;49208;50.874;6.466;2023-05-02T08:37:32;4.55;;;2.00;;
63114;SDS011;49208;50.874;6.466;2023-05-02T08:39:58;7.30;;;2.20;;
63114;SDS011;49208;50.874;6.466;2023-05-02T08:42:24;5.57;;;2.25;;
63114;SDS011;49208;50.874;6.466;2023-05-02T08:44:50;4.47;;;2.03;;
63114;SDS011;49208;50.874;6.466;2023-05-02T08:47:16;4.43;;;1.95;;
63114;SDS011;49208;50.874;6.466;2023-05-02T08:49:42;5.05;;;2.17;;
63114;SDS011;49208;50.874;6.466;2023-05-02T08:52:09;7.70;;;2.10;;
63114;SDS011;49208;50.874;6.466;2023-05-02T08:54:37;4.22;;;1.98;;
63114;SDS011;49208;50.874;6.466;2023-05-02T08:57:03;4.78;;;2.47;;
63114;SDS011;49208;50.874;6.466;2023-05-02T08:59:29;8.30;;;3.30;;
63114;SDS011;49208;50.874;6.466;2023-05-02T09:01:58;5.88;;;2.33;;
63114;SDS011;49208;50.874;6.466;2023-05-02T09:04:30;7.25;;;2.60;;
63114;SDS011;49208;50.874;6.466;2023-05-02T09:06:57;9.35;;;2.60;;
63114;SDS011;49208;50.874;6.466;2023-05-02T09:09:22;5.28;;;2.13;;
63114;SDS011;49208;50.874;6.466;2023-05-02T09:11:49;4.05;;;2.28;;
63114;SDS011;49208;50.874;6.466;2023-05-02T09:14:15;5.70;;;2.50;;
63114;SDS011;49208;50.874;6.466;2023-05-02T09:16:41;4.75;;;2.20;;
63114;SDS011;49208;50.874;6.466;2023-05-02T09:19:07;5.68;;;1.90;;
63114;SDS011;49208;50.874;6.466;2023-05-02T09:21:34;7.13;;;2.47;;
63114;SDS011;49208;50.874;6.466;2023-05-02T09:24:13;6.35;;;2.70;;
63114;SDS011;49208;50.874;6.466;2023-05-02T09:26:41;4.75;;;2.30;;
63114;SDS011;49208;50.874;6.466;2023-05-02T09:29:07;5.90;;;2.80;;
63114;SDS011;49208;50.874;6.466;2023-05-02T09:31:33;9.88;;;3.17;;
63114;SDS011;49208;50.874;6.466;2023-05-02T09:34:09;6.25;;;2.90;;
63114;SDS011;49208;50.874;6.466;2023-05-02T09:36:42;6.88;;;2.88;;
63114;SDS011;49208;50.874;6.466;2023-05-02T09:39:12;7.15;;;2.35;;
63114;SDS011;49208;50.874;6.466;2023-05-02T09:41:39;4.93;;;2.53;;
63114;SDS011;49208;50.874;6.466;2023-05-02T09:44:09;5.70;;;2.05;;
63114;SDS011;49208;50.874;6.466;2023-05-02T09:46:40;5.35;;;2.30;;
63114;SDS011;49208;50.874;6.466;2023-05-02T09:49:06;7.88;;;2.55;;
63114;SDS011;49208;50.874;6.466;2023-05-02T09:51:33;7.72;;;2.65;;
63114;SDS011;49208;50.874;6.466;2023-05-02T09:53:59;6.40;;;2.67;;
63114;SDS011;49208;50.874;6.466;2023-05-02T09:56:25;5.10;;;2.65;;
63114;SDS011;49208;50.874;6.466;2023-05-02T09:58:50;7.00;;;2.88;;
63114;SDS011;49208;50.874;6.466;2023-05-02T10:01:16;5.53;;;2.88;;
63114;SDS011;49208;50.874;6.466;2023-05-02T10:03:46;8.00;;;2.70;;
63114;SDS011;49208;50.874;6.466;2023-05-02T10:06:12;6.82;;;2.47;;
63114;SDS011;49208;50.874;6.466;2023-05-02T10:08:43;6.53;;;2.40;;
63114;SDS011;49208;50.874;6.466;2023-05-02T10:11:11;7.78;;;2.70;;
63114;SDS011;49208;50.874;6.466;2023-05-02T10:13:37;13.30;;;3.92;;
63114;SDS011;49208;50.874;6.466;2023-05-02T10:16:06;6.72;;;2.80;;
63114;SDS011;49208;50.874;6.466;2023-05-02T10:18:47;9.45;;;3.13;;
63114;SDS011;49208;50.874;6.466;2023-05-02T10:21:23;9.45;;;2.67;;
63114;SDS011;49208;50.874;6.466;2023-05-02T10:23:51;7.63;;;2.67;;
63114;SDS011;49208;50.874;6.466;2023-05-02T10:26:17;8.75;;;2.55;;
63114;SDS011;49208;50.874;6.466;2023-05-02T10:28:45;8.35;;;2.42;;
63114;SDS011;49208;50.874;6.466;2023-05-02T10:31:11;9.65;;;2.65;;
63114;SDS011;49208;50.874;6.466;2023-05-02T10:33:37;8.90;;;2.60;;
63114;SDS011;49208;50.874;6.466;2023-05-02T10:36:04;7.70;;;2.78;;
63114;SDS011;49208;50.874;6.466;2023-05-02T10:40:57;7.32;;;3.15;;
63114;SDS011;49208;50.874;6.466;2023-05-02T10:43:30;8.45;;;3.03;;
63114;SDS011;49208;50.874;6.466;2023-05-02T10:45:58;8.70;;;3.20;;
63114;SDS011;49208;50.874;6.466;2023-05-02T10:48:24;10.25;;;3.63;;
63114;SDS011;49208;50.874;6.466;2023-05-02T10:50:51;8.38;;;3.15;;
63114;SDS011;49208;50.874;6.466;2023-05-02T10:53:25;8.15;;;3.30;;
63114;SDS011;49208;50.874;6.466;2023-05-02T10:58:37;9.38;;;3.40;;
63114;SDS011;49208;50.874;6.466;2023-05-02T11:01:36;11.70;;;4.05;;
63114;SDS011;49208;50.874;6.466;2023-05-02T11:04:10;8.40;;;2.97;;
63114;SDS011;49208;50.874;6.466;2023-05-02T11:06:36;11.48;;;3.47;;
63114;SDS011;49208;50.874;6.466;2023-05-02T11:11:53;11.75;;;3.33;;
63114;SDS011;49208;50.874;6.466;2023-05-02T11:19:24;7.85;;;3.15;;
63114;SDS011;49208;50.874;6.466;2023-05-02T11:21:50;7.55;;;2.90;;
63114;SDS011;49208;50.874;6.466;2023-05-02T11:24:36;6.95;;;2.83;;
63114;SDS011;49208;50.874;6.466;2023-05-02T11:29:56;10.52;;;3.40;;
63114;SDS011;49208;50.874;6.466;2023-05-02T11:32:23;9.60;;;3.97;;
63114;SDS011;49208;50.874;6.466;2023-05-02T11:35:15;11.73;;;3.55;;
63114;SDS011;49208;50.874;6.466;2023-05-02T11:37:42;7.32;;;3.53;;
63114;SDS011;49208;50.874;6.466;2023-05-02T11:40:17;8.65;;;4.10;;
63114;SDS011;49208;50.874;6.466;2023-05-02T11:42:42;8.30;;;3.70;;
63114;SDS011;49208;50.874;6.466;2023-05-02T11:45:08;10.82;;;3.85;;
63114;SDS011;49208;50.874;6.466;2023-05-02T11:47:34;8.77;;;4.03;;
63114;SDS011;49208;50.874;6.466;2023-05-02T11:50:02;5.93;;;3.17;;
63114;SDS011;49208;50.874;6.466;2023-05-02T11:52:28;10.20;;;3.95;;
63114;SDS011;49208;50.874;6.466;2023-05-02T11:54:54;6.30;;;3.13;;
63114;SDS011;49208;50.874;6.466;2023-05-02T11:57:21;5.80;;;3.75;;
63114;SDS011;49208;50.874;6.466;2023-05-02T11:59:54;9.73;;;4.05;;
63114;SDS011;49208;50.874;6.466;2023-05-02T12:02:34;9.23;;;3.83;;
63114;SDS011;49208;50.874;6.466;2023-05-02T12:05:01;7.00;;;3.40;;
63114;SDS011;49208;50.874;6.466;2023-05-02T12:07:33;7.55;;;3.30;;
63114;SDS011;49208;50.874;6.466;2023-05-02T12:10:01;6.95;;;3.38;;
63114;SDS011;49208;50.874;6.466;2023-05-02T12:12:26;9.63;;;3.88;;
63114;SDS011;49208;50.874;6.466;2023-05-02T12:14:51;10.65;;;3.33;;
63114;SDS011;49208;50.874;6.466;2023-05-02T12:17:18;9.48;;;3.55;;
63114;SDS011;49208;50.874;6.466;2023-05-02T12:19:43;7.70;;;3.58;;
63114;SDS011;49208;50.874;6.466;2023-05-02T12:22:09;8.60;;;3.65;;
63114;SDS011;49208;50.874;6.466;2023-05-02T12:24:35;8.57;;;3.80;;
63114;SDS011;49208;50.874;6.466;2023-05-02T12:27:11;9.00;;;4.32;;
63114;SDS011;49208;50.874;6.466;2023-05-02T12:29:40;6.37;;;3.30;;
63114;SDS011;49208;50.874;6.466;2023-05-02T12:32:07;7.32;;;3.55;;
63114;SDS011;49208;50.874;6.466;2023-05-02T12:34:33;7.20;;;3.00;;
63114;SDS011;49208;50.874;6.466;2023-05-02T12:37:00;9.63;;;3.60;;
63114;SDS011;49208;50.874;6.466;2023-05-02T12:42:08;8.65;;;3.58;;
63114;SDS011;49208;50.874;6.466;2023-05-02T12:44:35;11.20;;;4.82;;
63114;SDS011;49208;50.874;6.466;2023-05-02T12:49:28;8.05;;;3.20;;
63114;SDS011;49208;50.874;6.466;2023-05-02T12:51:53;8.48;;;4.07;;
63114;SDS011;49208;50.874;6.466;2023-05-02T12:54:22;10.73;;;3.25;;
63114;SDS011;49208;50.874;6.466;2023-05-02T12:56:48;6.93;;;3.47;;
63114;SDS011;49208;50.874;6.466;2023-05-02T12:59:29;8.93;;;3.70;;
63114;SDS011;49208;50.874;6.466;2023-05-02T13:01:56;7.68;;;3.67;;
63114;SDS011;49208;50.874;6.466;2023-05-02T13:04:38;6.70;;;3.75;;
63114;SDS011;49208;50.874;6.466;2023-05-02T13:07:05;7.30;;;3.55;;
63114;SDS011;49208;50.874;6.466;2023-05-02T13:09:30;7.05;;;3.67;;
63114;SDS011;49208;50.874;6.466;2023-05-02T13:11:56;9.73;;;4.57;;
63114;SDS011;49208;50.874;6.466;2023-05-02T13:14:23;11.95;;;3.78;;
63114;SDS011;49208;50.874;6.466;2023-05-02T13:16:48;9.05;;;3.47;;
63114;SDS011;49208;50.874;6.466;2023-05-02T13:19:17;8.60;;;4.13;;
63114;SDS011;49208;50.874;6.466;2023-05-02T13:21:43;8.50;;;3.72;;
63114;SDS011;49208;50.874;6.466;2023-05-02T13:24:08;9.68;;;3.28;;
63114;SDS011;49208;50.874;6.466;2023-05-02T13:26:33;9.38;;;4.00;;
63114;SDS011;49208;50.874;6.466;2023-05-02T13:28:59;5.35;;;2.95;;
63114;SDS011;49208;50.874;6.466;2023-05-02T13:31:24;8.07;;;3.80;;
63114;SDS011;49208;50.874;6.466;2023-05-02T13:33:50;8.05;;;3.65;;
63114;SDS011;49208;50.874;6.466;2023-05-02T13:36:15;6.00;;;3.30;;
63114;SDS011;49208;50.874;6.466;2023-05-02T13:38:40;8.20;;;3.25;;
63114;SDS011;49208;50.874;6.466;2023-05-02T13:41:06;10.65;;;3.80;;
63114;SDS011;49208;50.874;6.466;2023-05-02T13:43:31;8.32;;;3.55;;
63114;SDS011;49208;50.874;6.466;2023-05-02T13:45:57;7.97;;;3.75;;
63114;SDS011;49208;50.874;6.466;2023-05-02T13:48:22;7.35;;;3.70;;
63114;SDS011;49208;50.874;6.466;2023-05-02T13:50:47;9.90;;;4.10;;
63114;SDS011;49208;50.874;6.466;2023-05-02T13:53:13;9.30;;;3.10;;
63114;SDS011;49208;50.874;6.466;2023-05-02T13:55:38;7.07;;;4.07;;
63114;SDS011;49208;50.874;6.466;2023-05-02T13:58:04;9.02;;;3.83;;
63114;SDS011;49208;50.874;6.466;2023-05-02T14:00:29;12.35;;;4.28;;
63114;SDS011;49208;50.874;6.466;2023-05-02T14:02:55;9.98;;;3.70;;
63114;SDS011;49208;50.874;6.466;2023-05-02T14:05:20;9.77;;;4.30;;
63114;SDS011;49208;50.874;6.466;2023-05-02T14:07:47;8.13;;;3.60;;
63114;SDS011;49208;50.874;6.466;2023-05-02T14:10:12;9.60;;;3.55;;
63114;SDS011;49208;50.874;6.466;2023-05-02T14:12:37;8.73;;;3.20;;
63114;SDS011;49208;50.874;6.466;2023-05-02T14:15:03;10.73;;;4.00;;
63114;SDS011;49208;50.874;6.466;2023-05-02T14:17:29;9.00;;;4.03;;
63114;SDS011;49208;50.874;6.466;2023-05-02T14:19:55;6.40;;;3.60;;
63114;SDS011;49208;50.874;6.466;2023-05-02T14:22:21;7.78;;;3.45;;
63114;SDS011;49208;50.874;6.466;2023-05-02T14:24:46;8.70;;;3.88;;
63114;SDS011;49208;50.874;6.466;2023-05-02T14:27:11;8.38;;;4.25;;
63114;SDS011;49208;50.874;6.466;2023-05-02T14:29:42;8.50;;;3.55;;
63114;SDS011;49208;50.874;6.466;2023-05-02T14:32:11;10.38;;;4.03;;
63114;SDS011;49208;50.874;6.466;2023-05-02T14:34:37;8.32;;;3.50;;
63114;SDS011;49208;50.874;6.466;2023-05-02T14:37:02;6.63;;;3.80;;
63114;SDS011;49208;50.874;6.466;2023-05-02T14:39:28;10.00;;;3.97;;
63114;SDS011;49208;50.874;6.466;2023-05-02T14:41:53;7.35;;;3.80;;
63114;SDS011;49208;50.874;6.466;2023-05-02T14:44:18;6.07;;;3.33;;
63114;SDS011;49208;50.874;6.466;2023-05-02T14:46:44;8.18;;;3.70;;
63114;SDS011;49208;50.874;6.466;2023-05-02T14:49:09;7.63;;;4.10;;
63114;SDS011;49208;50.874;6.466;2023-05-02T14:51:38;8.68;;;4.13;;
63114;SDS011;49208;50.874;6.466;2023-05-02T14:54:03;8.23;;;4.22;;
63114;SDS011;49208;50.874;6.466;2023-05-02T14:56:49;9.70;;;3.72;;
63114;SDS011;49208;50.874;6.466;2023-05-02T14:59:16;9.00;;;3.97;;
63114;SDS011;49208;50.874;6.466;2023-05-02T15:01:42;5.80;;;3.90;;
63114;SDS011;49208;50.874;6.466;2023-05-02T15:04:07;10.55;;;4.10;;
63114;SDS011;49208;50.874;6.466;2023-05-02T15:06:32;8.35;;;3.83;;
63114;SDS011;49208;50.874;6.466;2023-05-02T15:08:59;8.40;;;3.88;;
63114;SDS011;49208;50.874;6.466;2023-05-02T15:11:25;6.43;;;3.60;;
63114;SDS011;49208;50.874;6.466;2023-05-02T15:13:51;7.97;;;4.10;;
63114;SDS011;49208;50.874;6.466;2023-05-02T15:16:16;9.20;;;3.60;;
63114;SDS011;49208;50.874;6.466;2023-05-02T15:18:41;9.80;;;3.50;;
63114;SDS011;49208;50.874;6.466;2023-05-02T15:21:07;9.48;;;3.88;;
63114;SDS011;49208;50.874;6.466;2023-05-02T15:23:32;8.60;;;3.80;;
63114;SDS011;49208;50.874;6.466;2023-05-02T15:25:58;10.75;;;3.65;;
63114;SDS011;49208;50.874;6.466;2023-05-02T15:28:23;7.88;;;3.67;;
63114;SDS011;49208;50.874;6.466;2023-05-02T15:30:49;10.65;;;3.90;;
63114;SDS011;49208;50.874;6.466;2023-05-02T15:33:14;9.25;;;3.83;;
63114;SDS011;49208;50.874;6.466;2023-05-02T15:35:42;8.32;;;3.85;;
63114;SDS011;49208;50.874;6.466;2023-05-02T15:38:16;11.23;;;4.28;;
63114;SDS011;49208;50.874;6.466;2023-05-02T15:40:42;8.73;;;3.75;;
63114;SDS011;49208;50.874;6.466;2023-05-02T15:43:07;6.88;;;3.13;;
63114;SDS011;49208;50.874;6.466;2023-05-02T15:45:32;7.55;;;3.47;;
63114;SDS011;49208;50.874;6.466;2023-05-02T15:47:58;7.18;;;3.45;;
63114;SDS011;49208;50.874;6.466;2023-05-02T15:50:23;9.48;;;3.60;;
63114;SDS011;49208;50.874;6.466;2023-05-02T15:52:49;6.78;;;3.47;;
63114;SDS011;49208;50.874;6.466;2023-05-02T15:55:15;8.75;;;3.33;;
63114;SDS011;49208;50.874;6.466;2023-05-02T15:57:40;6.57;;;3.70;;
63114;SDS011;49208;50.874;6.466;2023-05-02T16:00:06;8.07;;;3.60;;
63114;SDS011;49208;50.874;6.466;2023-05-02T16:02:35;8.32;;;3.63;;
63114;SDS011;49208;50.874;6.466;2023-05-02T16:05:01;7.93;;;3.50;;
63114;SDS011;49208;50.874;6.466;2023-05-02T16:07:27;13.88;;;3.95;;
63114;SDS011;49208;50.874;6.466;2023-05-02T16:09:52;9.50;;;3.72;;
63114;SDS011;49208;50.874;6.466;2023-05-02T16:12:18;9.13;;;3.88;;
63114;SDS011;49208;50.874;6.466;2023-05-02T16:14:43;8.57;;;3.92;;
63114;SDS011;49208;50.874;6.466;2023-05-02T16:17:08;10.32;;;3.55;;
63114;SDS011;49208;50.874;6.466;2023-05-02T16:19:34;11.25;;;4.65;;
63114;SDS011;49208;50.874;6.466;2023-05-02T16:21:59;8.55;;;3.85;;
63114;SDS011;49208;50.874;6.466;2023-05-02T16:24:25;10.38;;;3.78;;
63114;SDS011;49208;50.874;6.466;2023-05-02T16:26:50;8.52;;;4.00;;
63114;SDS011;49208;50.874;6.466;2023-05-02T16:29:16;8.45;;;3.85;;
63114;SDS011;49208;50.874;6.466;2023-05-02T16:31:41;9.38;;;3.90;;
63114;SDS011;49208;50.874;6.466;2023-05-02T16:34:06;7.70;;;4.00;;
63114;SDS011;49208;50.874;6.466;2023-05-02T16:36:33;7.43;;;3.53;;
63114;SDS011;49208;50.874;6.466;2023-05-02T16:38:58;6.80;;;3.50;;
63114;SDS011;49208;50.874;6.466;2023-05-02T16:41:23;8.18;;;3.55;;
63114;SDS011;49208;50.874;6.466;2023-05-02T16:43:49;9.07;;;4.15;;
63114;SDS011;49208;50.874;6.466;2023-05-02T16:46:15;5.88;;;3.67;;
63114;SDS011;49208;50.874;6.466;2023-05-02T16:48:40;7.78;;;3.58;;
63114;SDS011;49208;50.874;6.466;2023-05-02T16:51:05;8.73;;;4.25;;
63114;SDS011;49208;50.874;6.466;2023-05-02T16:53:31;9.38;;;3.85;;
63114;SDS011;49208;50.874;6.466;2023-05-02T16:55:57;8.20;;;4.20;;
63114;SDS011;49208;50.874;6.466;2023-05-02T16:58:23;7.38;;;3.97;;
63114;SDS011;49208;50.874;6.466;2023-05-02T17:00:49;9.00;;;3.83;;
63114;SDS011;49208;50.874;6.466;2023-05-02T17:03:14;10.77;;;4.40;;
63114;SDS011;49208;50.874;6.466;2023-05-02T17:05:40;8.18;;;3.80;;
63114;SDS011;49208;50.874;6.466;2023-05-02T17:08:05;5.63;;;3.72;;
63114;SDS011;49208;50.874;6.466;2023-05-02T17:10:31;10.60;;;4.43;;
63114;SDS011;49208;50.874;6.466;2023-05-02T17:12:56;9.73;;;4.07;;
63114;SDS011;49208;50.874;6.466;2023-05-02T17:15:22;7.10;;;3.88;;
63114;SDS011;49208;50.874;6.466;2023-05-02T17:17:48;11.57;;;3.88;;
63114;SDS011;49208;50.874;6.466;2023-05-02T17:20:13;11.35;;;4.72;;
63114;SDS011;49208;50.874;6.466;2023-05-02T17:22:41;9.57;;;3.50;;
63114;SDS011;49208;50.874;6.466;2023-05-02T17:25:06;10.05;;;4.43;;
63114;SDS011;49208;50.874;6.466;2023-05-02T17:27:33;9.32;;;4.05;;
63114;SDS011;49208;50.874;6.466;2023-05-02T17:29:59;8.13;;;3.67;;
63114;SDS011;49208;50.874;6.466;2023-05-02T17:32:24;8.18;;;3.83;;
63114;SDS011;49208;50.874;6.466;2023-05-02T17:34:49;7.35;;;4.22;;
63114;SDS011;49208;50.874;6.466;2023-05-02T17:37:15;9.55;;;4.18;;
63114;SDS011;49208;50.874;6.466;2023-05-02T17:39:40;9.40;;;4.05;;
63114;SDS011;49208;50.874;6.466;2023-05-02T17:42:06;9.20;;;4.13;;
63114;SDS011;49208;50.874;6.466;2023-05-02T17:44:31;8.20;;;4.43;;
63114;SDS011;49208;50.874;6.466;2023-05-02T17:47:00;7.70;;;4.25;;
63114;SDS011;49208;50.874;6.466;2023-05-02T17:49:25;9.77;;;4.53;;
63114;SDS011;49208;50.874;6.466;2023-05-02T17:51:51;10.48;;;4.50;;
63114;SDS011;49208;50.874;6.466;2023-05-02T17:54:17;12.02;;;4.97;;
63114;SDS011;49208;50.874;6.466;2023-05-02T17:56:42;7.68;;;3.90;;
63114;SDS011;49208;50.874;6.466;2023-05-02T17:59:08;8.48;;;3.83;;
63114;SDS011;49208;50.874;6.466;2023-05-02T18:01:35;8.85;;;4.22;;
63114;SDS011;49208;50.874;6.466;2023-05-02T18:04:01;9.93;;;4.40;;
63114;SDS011;49208;50.874;6.466;2023-05-02T18:06:28;8.48;;;4.10;;
63114;SDS011;49208;50.874;6.466;2023-05-02T18:08:53;8.48;;;4.20;;
63114;SDS011;49208;50.874;6.466;2023-05-02T18:11:19;10.13;;;4.13;;
63114;SDS011;49208;50.874;6.466;2023-05-02T18:13:47;7.32;;;3.58;;
63114;SDS011;49208;50.874;6.466;2023-05-02T18:16:13;12.02;;;4.25;;
63114;SDS011;49208;50.874;6.466;2023-05-02T18:18:39;11.00;;;4.82;;
63114;SDS011;49208;50.874;6.466;2023-05-02T18:21:05;8.75;;;4.15;;
63114;SDS011;49208;50.874;6.466;2023-05-02T18:23:31;10.68;;;4.18;;
63114;SDS011;49208;50.874;6.466;2023-05-02T18:25:57;7.20;;;3.55;;
63114;SDS011;49208;50.874;6.466;2023-05-02T18:28:22;8.88;;;3.92;;
63114;SDS011;49208;50.874;6.466;2023-05-02T18:30:49;9.82;;;4.20;;
63114;SDS011;49208;50.874;6.466;2023-05-02T18:33:14;10.40;;;3.80;;
63114;SDS011;49208;50.874;6.466;2023-05-02T18:35:49;11.05;;;4.18;;
63114;SDS011;49208;50.874;6.466;2023-05-02T18:38:14;6.30;;;2.90;;
63114;SDS011;49208;50.874;6.466;2023-05-02T18:40:41;8.43;;;3.88;;
63114;SDS011;49208;50.874;6.466;2023-05-02T18:43:07;12.00;;;4.20;;
63114;SDS011;49208;50.874;6.466;2023-05-02T18:45:32;8.27;;;3.58;;
63114;SDS011;49208;50.874;6.466;2023-05-02T18:47:59;8.57;;;3.57;;
63114;SDS011;49208;50.874;6.466;2023-05-02T18:50:25;12.18;;;3.92;;
63114;SDS011;49208;50.874;6.466;2023-05-02T18:52:50;7.28;;;3.53;;
63114;SDS011;49208;50.874;6.466;2023-05-02T18:55:16;7.38;;;3.50;;
63114;SDS011;49208;50.874;6.466;2023-05-02T18:57:42;9.20;;;3.70;;
63114;SDS011;49208;50.874;6.466;2023-05-02T19:00:08;9.50;;;4.00;;
63114;SDS011;49208;50.874;6.466;2023-05-02T19:02:34;9.65;;;3.78;;
63114;SDS011;49208;50.874;6.466;2023-05-02T19:05:00;9.00;;;3.65;;
63114;SDS011;49208;50.874;6.466;2023-05-02T19:07:25;8.48;;;3.47;;
63114;SDS011;49208;50.874;6.466;2023-05-02T19:09:51;6.70;;;3.40;;
63114;SDS011;49208;50.874;6.466;2023-05-02T19:12:17;9.15;;;3.60;;
63114;SDS011;49208;50.874;6.466;2023-05-02T19:14:42;16.02;;;4.68;;
63114;SDS011;49208;50.874;6.466;2023-05-02T19:17:08;8.43;;;3.30;;
63114;SDS011;49208;50.874;6.466;2023-05-02T19:19:34;12.25;;;4.07;;
63114;SDS011;49208;50.874;6.466;2023-05-02T19:21:59;12.45;;;4.18;;
63114;SDS011;49208;50.874;6.466;2023-05-02T19:24:25;9.40;;;3.63;;
63114;SDS011;49208;50.874;6.466;2023-05-02T19:26:50;13.07;;;4.22;;
63114;SDS011;49208;50.874;6.466;2023-05-02T19:29:15;8.07;;;3.95;;
63114;SDS011;49208;50.874;6.466;2023-05-02T19:31:41;8.65;;;3.95;;
63114;SDS011;49208;50.874;6.466;2023-05-02T19:34:07;10.57;;;3.75;;
63114;SDS011;49208;50.874;6.466;2023-05-02T19:36:33;12.10;;;4.22;;
63114;SDS011;49208;50.874;6.466;2023-05-02T19:38:58;13.07;;;3.60;;
63114;SDS011;49208;50.874;6.466;2023-05-02T19:41:23;10.43;;;4.00;;
63114;SDS011;49208;50.874;6.466;2023-05-02T19:43:49;15.00;;;3.35;;
63114;SDS011;49208;50.874;6.466;2023-05-02T19:46:15;11.80;;;4.10;;
63114;SDS011;49208;50.874;6.466;2023-05-02T19:48:42;21.25;;;4.07;;
63114;SDS011;49208;50.874;6.466;2023-05-02T19:51:07;9.65;;;3.40;;
63114;SDS011;49208;50.874;6.466;2023-05-02T19:53:34;16.38;;;3.83;;
63114;SDS011;49208;50.874;6.466;2023-05-02T19:56:01;12.93;;;3.90;;
63114;SDS011;49208;50.874;6.466;2023-05-02T19:58:27;11.18;;;3.95;;
63114;SDS011;49208;50.874;6.466;2023-05-02T20:00:54;12.07;;;3.75;;
63114;SDS011;49208;50.874;6.466;2023-05-02T20:03:19;9.55;;;3.92;;
63114;SDS011;49208;50.874;6.466;2023-05-02T20:05:45;15.77;;;4.53;;
63114;SDS011;49208;50.874;6.466;2023-05-02T20:08:11;11.82;;;3.70;;
63114;SDS011;49208;50.874;6.466;2023-05-02T20:10:36;11.10;;;4.20;;
63114;SDS011;49208;50.874;6.466;2023-05-02T20:13:03;10.48;;;4.28;;
63114;SDS011;49208;50.874;6.466;2023-05-02T20:15:28;7.97;;;4.18;;
63114;SDS011;49208;50.874;6.466;2023-05-02T20:17:54;13.75;;;4.07;;
63114;SDS011;49208;50.874;6.466;2023-05-02T20:20:22;10.35;;;4.20;;
63114;SDS011;49208;50.874;6.466;2023-05-02T20:22:50;10.00;;;4.95;;
63114;SDS011;49208;50.874;6.466;2023-05-02T20:25:15;8.32;;;3.80;;
63114;SDS011;49208;50.874;6.466;2023-05-02T20:27:41;10.77;;;4.80;;
63114;SDS011;49208;50.874;6.466;2023-05-02T20:30:07;9.50;;;3.83;;
63114;SDS011;49208;50.874;6.466;2023-05-02T20:32:34;11.35;;;4.65;;
63114;SDS011;49208;50.874;6.466;2023-05-02T20:35:00;11.65;;;4.85;;
63114;SDS011;49208;50.874;6.466;2023-05-02T20:37:26;10.07;;;4.15;;
63114;SDS011;49208;50.874;6.466;2023-05-02T20:39:52;9.77;;;4.63;;
63114;SDS011;49208;50.874;6.466;2023-05-02T20:42:17;9.63;;;3.97;;
63114;SDS011;49208;50.874;6.466;2023-05-02T20:44:56;12.27;;;4.35;;
63114;SDS011;49208;50.874;6.466;2023-05-02T20:47:24;12.75;;;4.47;;
63114;SDS011;49208;50.874;6.466;2023-05-02T20:52:16;9.93;;;4.63;;
63114;SDS011;49208;50.874;6.466;2023-05-02T20:54:43;10.77;;;4.63;;
63114;SDS011;49208;50.874;6.466;2023-05-02T20:57:09;9.82;;;4.90;;
63114;SDS011;49208;50.874;6.466;2023-05-02T20:59:35;9.23;;;4.72;;
63114;SDS011;49208;50.874;6.466;2023-05-02T21:02:00;8.65;;;4.40;;
63114;SDS011;49208;50.874;6.466;2023-05-02T21:04:26;10.20;;;4.40;;